createdAt,value
2022-11-19T00:03:52.129Z,0.19
2022-11-19T00:08:55.046Z,0.20
2022-11-19T00:13:56.881Z,0.16
2022-11-19T00:18:58.756Z,0.18
2022-11-19T00:24:00.573Z,0.19
2022-11-19T00:29:02.399Z,0.22
2022-11-19T00:34:04.392Z,0.25
2022-11-19T00:39:06.337Z,0.26
2022-11-19T00:44:08.281Z,0.19
2022-11-19T00:49:10.068Z,0.16
2022-11-19T00:54:11.897Z,0.19
2022-11-19T00:59:14.122Z,0.22
2022-11-19T01:04:15.963Z,0.30
2022-11-19T01:09:18.365Z,0.27
2022-11-19T01:14:20.229Z,0.30
2022-11-19T01:19:22.523Z,0.25
2022-11-19T01:24:24.505Z,0.13
2022-11-19T01:29:26.493Z,0.02
2022-11-19T01:34:28.405Z,-0.06
2022-11-19T01:39:30.318Z,-0.21
2022-11-19T01:45:00.165Z,-0.25
2022-11-19T01:50:02.604Z,-0.28
2022-11-19T01:55:04.907Z,-0.45
2022-11-19T02:00:08.237Z,-0.66
2022-11-19T02:05:10.125Z,-1.07
2022-11-19T02:10:12.469Z,-1.12
2022-11-19T02:15:14.280Z,-1.17
2022-11-19T02:20:37.816Z,-1.36
2022-11-19T02:25:42.332Z,-1.49
2022-11-19T02:30:49.718Z,-1.54
2022-11-19T02:36:00.100Z,-1.45
2022-11-19T02:41:28.607Z,-1.51
2022-11-19T02:46:30.568Z,-1.58
2022-11-19T02:51:32.400Z,-1.46
2022-11-19T02:56:53.644Z,-1.65
2022-11-19T03:02:14.723Z,-1.86
2022-11-19T03:07:19.041Z,-1.97
2022-11-19T03:12:26.793Z,-1.86
2022-11-19T03:17:44.909Z,-1.94
2022-11-19T03:22:55.461Z,-1.86
2022-11-19T03:28:03.581Z,-1.75
2022-11-19T03:33:24.528Z,-1.69
2022-11-19T03:38:34.065Z,-1.71
2022-11-19T03:43:39.780Z,-1.71
2022-11-19T03:48:45.214Z,-1.82
2022-11-19T03:53:48.375Z,-1.97
2022-11-19T03:58:50.287Z,-2.10
2022-11-19T04:04:11.018Z,-2.08
2022-11-19T04:09:12.866Z,-1.94
2022-11-19T04:14:14.783Z,-1.92
2022-11-19T04:19:18.285Z,-1.97
2022-11-19T04:24:20.399Z,-2.18
2022-11-19T04:29:22.399Z,-2.39
2022-11-19T04:34:24.261Z,-2.44
2022-11-19T04:39:26.871Z,-2.54
2022-11-19T04:44:29.097Z,-2.64
2022-11-19T04:49:30.918Z,-2.74
2022-11-19T04:54:32.726Z,-2.71
2022-11-19T04:59:34.555Z,-2.51
2022-11-19T05:04:36.414Z,-2.33
2022-11-19T05:09:38.228Z,-2.42
2022-11-19T05:14:40.186Z,-2.62
2022-11-19T05:19:42.040Z,-2.70
2022-11-19T05:24:43.852Z,-2.67
2022-11-19T05:29:45.701Z,-2.80
2022-11-19T05:34:48.571Z,-2.93
2022-11-19T05:39:50.464Z,-2.85
2022-11-19T05:44:52.311Z,-2.77
2022-11-19T05:49:54.137Z,-2.88
2022-11-19T05:54:55.956Z,-2.90
2022-11-19T05:59:57.789Z,-2.76
2022-11-19T06:04:59.609Z,-2.63
2022-11-19T06:10:01.483Z,-2.65
2022-11-19T06:15:03.642Z,-2.67
2022-11-19T06:20:08.847Z,-2.58
2022-11-19T06:25:10.690Z,-2.47
2022-11-19T06:30:13.501Z,-2.39
2022-11-19T06:35:15.411Z,-2.43
2022-11-19T06:40:17.345Z,-2.43
2022-11-19T06:45:19.178Z,-2.49
2022-11-19T06:50:20.987Z,-2.58
2022-11-19T06:55:23.281Z,-2.60
2022-11-19T07:00:25.097Z,-2.55
2022-11-19T07:05:26.943Z,-2.39
2022-11-19T07:10:28.799Z,-2.09
2022-11-19T07:15:30.731Z,-1.82
2022-11-19T07:20:32.670Z,-1.54
2022-11-19T07:25:34.478Z,-1.20
2022-11-19T07:30:36.465Z,-0.92
2022-11-19T07:35:38.295Z,-0.69
2022-11-19T07:40:40.166Z,-0.43
2022-11-19T07:45:41.992Z,-0.22
2022-11-19T07:50:55.144Z,0.14
2022-11-19T07:56:01.363Z,0.57
2022-11-19T08:01:11.035Z,0.85
2022-11-19T08:06:15.522Z,1.10
2022-11-19T08:11:18.437Z,1.40
2022-11-19T08:16:39.096Z,1.60
2022-11-19T08:21:43.195Z,1.92
2022-11-19T08:26:45.634Z,2.25
2022-11-19T08:31:48.342Z,2.51
2022-11-19T08:36:50.247Z,2.79
2022-11-19T08:42:10.528Z,2.92
2022-11-19T08:47:12.442Z,2.99
2022-11-19T08:52:14.729Z,3.09
2022-11-19T08:57:16.604Z,3.22
2022-11-19T09:02:18.431Z,3.38
2022-11-19T09:07:20.349Z,3.50
2022-11-19T09:12:22.312Z,3.53
2022-11-19T09:17:24.437Z,3.44
2022-11-19T09:22:26.450Z,3.55
2022-11-19T09:27:28.286Z,3.53
2022-11-19T09:32:30.199Z,3.58
2022-11-19T09:37:34.221Z,3.53
2022-11-19T09:42:49.931Z,3.60
2022-11-19T09:48:35.766Z,3.81
2022-11-19T09:54:01.652Z,3.80
2022-11-19T09:59:25.559Z,3.93
2022-11-19T10:04:31.712Z,4.07
2022-11-19T10:09:33.481Z,4.16
2022-11-19T10:14:47.326Z,4.32
2022-11-19T10:20:04.290Z,4.44
2022-11-19T10:25:16.546Z,4.43
2022-11-19T10:30:21.596Z,4.36
2022-11-19T10:35:30.074Z,4.33
2022-11-19T10:40:57.685Z,4.19
2022-11-19T10:46:02.884Z,3.83
2022-11-19T10:51:19.389Z,3.58
2022-11-19T10:56:42.300Z,3.45
2022-11-19T11:01:47.457Z,3.46
2022-11-19T11:06:51.240Z,3.56
2022-11-19T11:12:11.800Z,3.55
2022-11-19T11:17:28.848Z,3.56
2022-11-19T11:22:31.198Z,3.44
2022-11-19T11:27:35.664Z,3.48
2022-11-19T11:32:38.737Z,3.53
2022-11-19T11:37:40.641Z,3.41
2022-11-19T11:42:42.547Z,3.43
2022-11-19T11:47:44.406Z,3.46
2022-11-19T11:52:52.070Z,3.52
2022-11-19T11:58:06.266Z,3.60
2022-11-19T12:03:14.010Z,3.67
2022-11-19T12:08:37.022Z,3.79
2022-11-19T12:13:50.717Z,4.09
2022-11-19T12:18:55.628Z,4.27
2022-11-19T12:24:12.658Z,4.48
2022-11-19T12:29:17.762Z,5.71
2022-11-19T12:34:50.024Z,8.57
2022-11-19T12:40:19.274Z,11.32
2022-11-19T12:45:42.186Z,13.96
2022-11-19T12:51:02.112Z,15.44
2022-11-19T12:56:22.877Z,16.26
2022-11-19T13:01:31.119Z,16.73
2022-11-19T13:06:49.386Z,17.70
2022-11-19T13:12:02.429Z,18.40
2022-11-19T13:17:11.357Z,18.56
2022-11-19T13:22:19.150Z,18.54
2022-11-19T13:27:23.850Z,17.85
2022-11-19T13:32:48.710Z,16.58
2022-11-19T13:38:02.791Z,16.45
2022-11-19T13:43:32.583Z,17.04
2022-11-19T13:48:43.260Z,17.84
2022-11-19T13:53:46.438Z,18.14
2022-11-19T13:58:52.344Z,17.87
2022-11-19T14:04:03.224Z,16.03
2022-11-19T14:09:11.004Z,13.21
2022-11-19T14:14:40.630Z,11.40
2022-11-19T14:20:13.870Z,9.86
2022-11-19T14:26:05.020Z,8.78
2022-11-19T14:31:07.200Z,7.94
2022-11-19T14:36:31.807Z,7.27
2022-11-19T14:41:34.976Z,6.63
2022-11-19T14:46:42.011Z,6.16
2022-11-19T14:51:43.936Z,5.80
2022-11-19T14:56:48.629Z,5.47
2022-11-19T15:02:12.070Z,5.31
2022-11-19T15:07:39.407Z,5.08
2022-11-19T15:12:41.265Z,4.76
2022-11-19T15:17:43.928Z,4.38
2022-11-19T15:23:25.077Z,4.20
2022-11-19T15:28:45.204Z,3.95
2022-11-19T15:34:19.152Z,3.58
2022-11-19T15:39:32.053Z,3.32
2022-11-19T15:44:37.318Z,3.10
2022-11-19T15:49:42.950Z,2.90
2022-11-19T15:54:44.826Z,2.78
2022-11-19T15:59:51.954Z,2.67
2022-11-19T16:04:53.885Z,2.65
2022-11-19T16:09:56.348Z,2.47
2022-11-19T16:15:16.936Z,2.37
2022-11-19T16:20:21.140Z,2.31
2022-11-19T16:25:27.706Z,2.11
2022-11-19T16:30:38.284Z,1.94
2022-11-19T16:35:40.153Z,1.60
2022-11-19T16:41:01.770Z,1.32
2022-11-19T16:46:05.772Z,1.30
2022-11-19T16:51:38.397Z,1.42
2022-11-19T16:56:44.043Z,1.58
2022-11-19T17:01:56.251Z,1.66
2022-11-19T17:06:59.485Z,1.47
2022-11-19T17:12:19.878Z,1.18
2022-11-19T17:17:39.487Z,0.87
2022-11-19T17:22:42.251Z,0.85
2022-11-19T17:27:44.768Z,0.86
2022-11-19T17:32:53.789Z,1.06
2022-11-19T17:37:56.855Z,1.17
2022-11-19T17:43:17.176Z,1.15
2022-11-19T17:48:25.335Z,0.99
2022-11-19T17:53:27.340Z,0.87
2022-11-19T17:58:29.363Z,0.64
2022-11-19T18:03:31.475Z,0.45
2022-11-19T18:08:35.151Z,0.35
2022-11-19T18:13:37.361Z,0.24
2022-11-19T18:18:39.463Z,0.10
2022-11-19T18:23:42.426Z,-0.01
2022-11-19T18:28:48.843Z,-0.17
2022-11-19T18:33:52.326Z,-0.51
2022-11-19T18:38:56.000Z,-0.64
2022-11-19T18:44:18.242Z,-0.61
2022-11-19T18:49:20.221Z,-0.35
2022-11-19T18:54:22.368Z,-0.25
2022-11-19T18:59:24.611Z,-0.37
2022-11-19T19:04:26.831Z,-0.29
2022-11-19T19:09:28.961Z,-0.27
2022-11-19T19:14:30.905Z,-0.29
2022-11-19T19:19:32.734Z,-0.23
2022-11-19T19:24:34.881Z,-0.29
2022-11-19T19:29:37.413Z,-0.39
2022-11-19T19:34:39.291Z,-0.43
2022-11-19T19:39:41.328Z,-0.49
2022-11-19T19:44:43.502Z,-0.45
2022-11-19T19:49:45.325Z,-0.50
2022-11-19T19:54:47.146Z,-0.57
2022-11-19T19:59:49.018Z,-0.58
2022-11-19T20:04:50.897Z,-0.63
2022-11-19T20:09:52.717Z,-0.58
2022-11-19T20:14:54.580Z,-0.60
2022-11-19T20:19:56.405Z,-0.55
2022-11-19T20:24:58.763Z,-0.56
2022-11-19T20:30:00.834Z,-0.63
2022-11-19T20:35:03.143Z,-0.64
2022-11-19T20:40:05.437Z,-0.69
2022-11-19T20:45:08.392Z,-0.87
2022-11-19T20:50:10.623Z,-1.12
2022-11-19T20:55:12.444Z,-1.28
2022-11-19T21:00:15.642Z,-1.31
2022-11-19T21:05:17.571Z,-1.22
2022-11-19T21:10:19.462Z,-1.20
2022-11-19T21:15:21.296Z,-1.20
2022-11-19T21:20:23.299Z,-1.25
2022-11-19T21:25:25.306Z,-1.33
2022-11-19T21:30:27.145Z,-1.35
2022-11-19T21:35:29.061Z,-1.33
2022-11-19T21:40:30.904Z,-1.28
2022-11-19T21:45:33.001Z,-1.25
2022-11-19T21:50:37.806Z,-1.33
2022-11-19T21:55:43.111Z,-1.44
2022-11-19T22:00:47.021Z,-1.55
2022-11-19T22:06:08.803Z,-1.76
2022-11-19T22:11:30.064Z,-1.87
2022-11-19T22:16:35.747Z,-2.10
2022-11-19T22:21:38.053Z,-2.39
2022-11-19T22:26:39.858Z,-2.47
2022-11-19T22:31:41.713Z,-2.53
2022-11-19T22:36:43.565Z,-2.33
2022-11-19T22:41:45.373Z,-2.15
2022-11-19T22:46:47.317Z,-2.17
2022-11-19T22:51:49.432Z,-2.10
2022-11-19T22:56:51.255Z,-2.02
2022-11-19T23:01:53.121Z,-2.14
2022-11-19T23:06:54.995Z,-2.24
2022-11-19T23:12:15.592Z,-2.46
2022-11-19T23:17:17.418Z,-2.51
2022-11-19T23:22:19.310Z,-2.47
2022-11-19T23:27:22.391Z,-2.62
2022-11-19T23:32:24.297Z,-2.65
2022-11-19T23:37:26.204Z,-2.64
2022-11-19T23:42:28.008Z,-2.65
2022-11-19T23:47:29.958Z,-2.73
2022-11-19T23:52:31.856Z,-2.62
2022-11-19T23:57:33.662Z,-2.65
